sensor_id;sensor_type;location;lat;lon;timestamp;P1;durP1;ratioP1;P2;durP2;ratioP2
14088;SDS011;7120;52.890;6.040;2024-01-10T00:01:46;17.47;;;13.97;;
14088;SDS011;7120;52.890;6.040;2024-01-10T00:04:11;16.07;;;13.20;;
14088;SDS011;7120;52.890;6.040;2024-01-10T00:06:37;16.03;;;13.43;;
14088;SDS011;7120;52.890;6.040;2024-01-10T00:09:02;17.93;;;12.80;;
14088;SDS011;7120;52.890;6.040;2024-01-10T00:11:27;18.87;;;14.07;;
14088;SDS011;7120;52.890;6.040;2024-01-10T00:13:53;17.17;;;12.87;;
14088;SDS011;7120;52.890;6.040;2024-01-10T00:16:24;15.43;;;12.20;;
14088;SDS011;7120;52.890;6.040;2024-01-10T00:18:50;15.20;;;11.83;;
14088;SDS011;7120;52.890;6.040;2024-01-10T00:21:18;15.67;;;12.17;;
14088;SDS011;7120;52.890;6.040;2024-01-10T00:23:43;17.60;;;12.87;;
14088;SDS011;7120;52.890;6.040;2024-01-10T00:26:08;16.10;;;12.80;;
14088;SDS011;7120;52.890;6.040;2024-01-10T00:28:34;16.23;;;11.50;;
14088;SDS011;7120;52.890;6.040;2024-01-10T00:31:02;18.87;;;12.63;;
14088;SDS011;7120;52.890;6.040;2024-01-10T00:33:27;15.70;;;11.50;;
14088;SDS011;7120;52.890;6.040;2024-01-10T00:35:53;16.47;;;11.50;;
14088;SDS011;7120;52.890;6.040;2024-01-10T00:38:18;13.73;;;11.03;;
14088;SDS011;7120;52.890;6.040;2024-01-10T00:40:43;15.40;;;10.73;;
14088;SDS011;7120;52.890;6.040;2024-01-10T00:43:09;14.07;;;10.90;;
14088;SDS011;7120;52.890;6.040;2024-01-10T00:45:34;15.23;;;10.90;;
14088;SDS011;7120;52.890;6.040;2024-01-10T00:47:59;14.87;;;10.10;;
14088;SDS011;7120;52.890;6.040;2024-01-10T00:50:27;15.60;;;10.67;;
14088;SDS011;7120;52.890;6.040;2024-01-10T00:52:52;14.70;;;10.90;;
14088;SDS011;7120;52.890;6.040;2024-01-10T00:55:17;15.07;;;10.30;;
14088;SDS011;7120;52.890;6.040;2024-01-10T00:57:43;14.73;;;10.73;;
14088;SDS011;7120;52.890;6.040;2024-01-10T01:00:08;13.80;;;10.37;;
14088;SDS011;7120;52.890;6.040;2024-01-10T01:02:35;13.00;;;9.30;;
14088;SDS011;7120;52.890;6.040;2024-01-10T01:05:02;15.80;;;10.67;;
14088;SDS011;7120;52.890;6.040;2024-01-10T01:07:28;14.13;;;11.00;;
14088;SDS011;7120;52.890;6.040;2024-01-10T01:09:53;13.00;;;10.53;;
14088;SDS011;7120;52.890;6.040;2024-01-10T01:12:18;13.77;;;9.87;;
14088;SDS011;7120;52.890;6.040;2024-01-10T01:14:44;12.77;;;10.10;;
14088;SDS011;7120;52.890;6.040;2024-01-10T01:17:09;14.40;;;10.30;;
14088;SDS011;7120;52.890;6.040;2024-01-10T01:19:34;12.00;;;9.27;;
14088;SDS011;7120;52.890;6.040;2024-01-10T01:22:00;12.17;;;10.03;;
14088;SDS011;7120;52.890;6.040;2024-01-10T01:24:25;11.87;;;9.10;;
14088;SDS011;7120;52.890;6.040;2024-01-10T01:26:51;15.63;;;10.57;;
14088;SDS011;7120;52.890;6.040;2024-01-10T01:29:17;12.40;;;10.37;;
14088;SDS011;7120;52.890;6.040;2024-01-10T01:31:43;11.83;;;9.50;;
14088;SDS011;7120;52.890;6.040;2024-01-10T01:34:08;12.47;;;8.73;;
14088;SDS011;7120;52.890;6.040;2024-01-10T01:36:33;14.47;;;10.10;;
14088;SDS011;7120;52.890;6.040;2024-01-10T01:38:59;14.63;;;10.20;;
14088;SDS011;7120;52.890;6.040;2024-01-10T01:41:24;12.73;;;9.07;;
14088;SDS011;7120;52.890;6.040;2024-01-10T01:43:49;12.17;;;8.97;;
14088;SDS011;7120;52.890;6.040;2024-01-10T01:46:15;10.73;;;9.10;;
14088;SDS011;7120;52.890;6.040;2024-01-10T01:48:40;11.87;;;8.80;;
14088;SDS011;7120;52.890;6.040;2024-01-10T01:51:07;11.97;;;8.93;;
14088;SDS011;7120;52.890;6.040;2024-01-10T01:53:37;11.13;;;8.73;;
14088;SDS011;7120;52.890;6.040;2024-01-10T01:56:07;12.90;;;9.70;;
14088;SDS011;7120;52.890;6.040;2024-01-10T01:58:34;9.90;;;8.43;;
14088;SDS011;7120;52.890;6.040;2024-01-10T02:01:02;14.03;;;9.10;;
14088;SDS011;7120;52.890;6.040;2024-01-10T02:03:28;13.93;;;9.93;;
14088;SDS011;7120;52.890;6.040;2024-01-10T02:05:55;12.37;;;9.57;;
14088;SDS011;7120;52.890;6.040;2024-01-10T02:08:24;12.67;;;9.97;;
14088;SDS011;7120;52.890;6.040;2024-01-10T02:10:49;15.47;;;9.77;;
14088;SDS011;7120;52.890;6.040;2024-01-10T02:13:15;14.93;;;9.37;;
14088;SDS011;7120;52.890;6.040;2024-01-10T02:15:41;12.77;;;9.10;;
14088;SDS011;7120;52.890;6.040;2024-01-10T02:18:07;14.87;;;10.40;;
14088;SDS011;7120;52.890;6.040;2024-01-10T02:20:35;15.77;;;10.70;;
14088;SDS011;7120;52.890;6.040;2024-01-10T02:23:00;15.80;;;10.30;;
14088;SDS011;7120;52.890;6.040;2024-01-10T02:25:26;16.63;;;11.20;;
14088;SDS011;7120;52.890;6.040;2024-01-10T02:27:51;16.53;;;11.57;;
14088;SDS011;7120;52.890;6.040;2024-01-10T02:30:16;15.73;;;11.40;;
14088;SDS011;7120;52.890;6.040;2024-01-10T02:32:44;13.43;;;10.73;;
14088;SDS011;7120;52.890;6.040;2024-01-10T02:35:10;16.60;;;11.57;;
14088;SDS011;7120;52.890;6.040;2024-01-10T02:37:35;15.27;;;11.73;;
14088;SDS011;7120;52.890;6.040;2024-01-10T02:40:04;16.40;;;12.37;;
14088;SDS011;7120;52.890;6.040;2024-01-10T02:42:29;15.87;;;11.90;;
14088;SDS011;7120;52.890;6.040;2024-01-10T02:44:56;18.67;;;13.37;;
14088;SDS011;7120;52.890;6.040;2024-01-10T02:47:21;17.17;;;12.33;;
14088;SDS011;7120;52.890;6.040;2024-01-10T02:49:46;15.53;;;12.03;;
14088;SDS011;7120;52.890;6.040;2024-01-10T02:52:12;19.10;;;12.37;;
14088;SDS011;7120;52.890;6.040;2024-01-10T02:54:37;17.37;;;12.30;;
14088;SDS011;7120;52.890;6.040;2024-01-10T02:57:03;18.50;;;13.30;;
14088;SDS011;7120;52.890;6.040;2024-01-10T02:59:28;16.57;;;13.17;;
14088;SDS011;7120;52.890;6.040;2024-01-10T03:01:53;17.37;;;13.17;;
14088;SDS011;7120;52.890;6.040;2024-01-10T03:04:19;17.20;;;12.53;;
14088;SDS011;7120;52.890;6.040;2024-01-10T03:06:44;17.07;;;12.80;;
14088;SDS011;7120;52.890;6.040;2024-01-10T03:09:10;16.97;;;13.00;;
14088;SDS011;7120;52.890;6.040;2024-01-10T03:11:35;19.83;;;12.97;;
14088;SDS011;7120;52.890;6.040;2024-01-10T03:14:07;16.97;;;13.23;;
14088;SDS011;7120;52.890;6.040;2024-01-10T03:16:34;17.80;;;12.57;;
14088;SDS011;7120;52.890;6.040;2024-01-10T03:18:59;16.67;;;12.30;;
14088;SDS011;7120;52.890;6.040;2024-01-10T03:21:25;18.70;;;13.70;;
14088;SDS011;7120;52.890;6.040;2024-01-10T03:23:52;17.80;;;13.20;;
14088;SDS011;7120;52.890;6.040;2024-01-10T03:26:18;17.33;;;12.73;;
14088;SDS011;7120;52.890;6.040;2024-01-10T03:28:43;18.33;;;13.63;;
14088;SDS011;7120;52.890;6.040;2024-01-10T03:31:10;18.07;;;13.67;;
14088;SDS011;7120;52.890;6.040;2024-01-10T03:33:36;16.57;;;12.10;;
14088;SDS011;7120;52.890;6.040;2024-01-10T03:36:01;17.53;;;11.90;;
14088;SDS011;7120;52.890;6.040;2024-01-10T03:38:26;14.97;;;12.50;;
14088;SDS011;7120;52.890;6.040;2024-01-10T03:40:52;18.40;;;13.57;;
14088;SDS011;7120;52.890;6.040;2024-01-10T03:43:17;16.83;;;13.17;;
14088;SDS011;7120;52.890;6.040;2024-01-10T03:45:42;14.53;;;12.30;;
14088;SDS011;7120;52.890;6.040;2024-01-10T03:48:08;15.60;;;11.50;;
14088;SDS011;7120;52.890;6.040;2024-01-10T03:50:34;17.03;;;12.83;;
14088;SDS011;7120;52.890;6.040;2024-01-10T03:52:59;17.40;;;12.93;;
14088;SDS011;7120;52.890;6.040;2024-01-10T03:55:24;19.57;;;13.30;;
14088;SDS011;7120;52.890;6.040;2024-01-10T03:57:50;16.80;;;12.77;;
14088;SDS011;7120;52.890;6.040;2024-01-10T04:00:15;17.87;;;13.10;;
14088;SDS011;7120;52.890;6.040;2024-01-10T04:02:41;18.13;;;13.80;;
14088;SDS011;7120;52.890;6.040;2024-01-10T04:05:09;18.60;;;13.53;;
14088;SDS011;7120;52.890;6.040;2024-01-10T04:07:36;18.63;;;14.40;;
14088;SDS011;7120;52.890;6.040;2024-01-10T04:10:02;20.93;;;14.87;;
14088;SDS011;7120;52.890;6.040;2024-01-10T04:12:28;18.20;;;13.83;;
14088;SDS011;7120;52.890;6.040;2024-01-10T04:14:53;17.60;;;13.17;;
14088;SDS011;7120;52.890;6.040;2024-01-10T04:17:19;19.03;;;13.20;;
14088;SDS011;7120;52.890;6.040;2024-01-10T04:19:44;17.70;;;14.23;;
14088;SDS011;7120;52.890;6.040;2024-01-10T04:22:09;22.90;;;16.70;;
14088;SDS011;7120;52.890;6.040;2024-01-10T04:24:34;18.43;;;13.80;;
14088;SDS011;7120;52.890;6.040;2024-01-10T04:27:00;20.23;;;15.13;;
14088;SDS011;7120;52.890;6.040;2024-01-10T04:29:25;20.10;;;14.40;;
14088;SDS011;7120;52.890;6.040;2024-01-10T04:31:50;21.70;;;15.53;;
14088;SDS011;7120;52.890;6.040;2024-01-10T04:34:16;19.50;;;14.93;;
14088;SDS011;7120;52.890;6.040;2024-01-10T04:36:44;21.30;;;14.67;;
14088;SDS011;7120;52.890;6.040;2024-01-10T04:39:09;20.87;;;15.23;;
14088;SDS011;7120;52.890;6.040;2024-01-10T04:41:35;17.50;;;13.67;;
14088;SDS011;7120;52.890;6.040;2024-01-10T04:44:00;19.37;;;13.83;;
14088;SDS011;7120;52.890;6.040;2024-01-10T04:46:26;20.50;;;14.47;;
14088;SDS011;7120;52.890;6.040;2024-01-10T04:48:51;21.93;;;14.57;;
14088;SDS011;7120;52.890;6.040;2024-01-10T04:51:16;20.07;;;13.83;;
14088;SDS011;7120;52.890;6.040;2024-01-10T04:53:42;19.07;;;14.50;;
14088;SDS011;7120;52.890;6.040;2024-01-10T04:56:07;18.93;;;13.73;;
14088;SDS011;7120;52.890;6.040;2024-01-10T04:58:32;19.13;;;13.87;;
14088;SDS011;7120;52.890;6.040;2024-01-10T05:00:59;20.40;;;14.00;;
14088;SDS011;7120;52.890;6.040;2024-01-10T05:03:24;19.57;;;15.10;;
14088;SDS011;7120;52.890;6.040;2024-01-10T05:05:50;20.60;;;14.63;;
14088;SDS011;7120;52.890;6.040;2024-01-10T05:08:15;20.23;;;14.90;;
14088;SDS011;7120;52.890;6.040;2024-01-10T05:10:45;20.23;;;14.70;;
14088;SDS011;7120;52.890;6.040;2024-01-10T05:13:10;19.33;;;15.03;;
14088;SDS011;7120;52.890;6.040;2024-01-10T05:15:35;19.80;;;14.23;;
14088;SDS011;7120;52.890;6.040;2024-01-10T05:18:00;20.73;;;15.33;;
14088;SDS011;7120;52.890;6.040;2024-01-10T05:20:26;18.13;;;13.97;;
14088;SDS011;7120;52.890;6.040;2024-01-10T05:22:51;22.57;;;14.67;;
14088;SDS011;7120;52.890;6.040;2024-01-10T05:25:16;19.57;;;14.53;;
14088;SDS011;7120;52.890;6.040;2024-01-10T05:27:43;21.23;;;15.87;;
14088;SDS011;7120;52.890;6.040;2024-01-10T05:30:08;21.33;;;14.80;;
14088;SDS011;7120;52.890;6.040;2024-01-10T05:32:34;21.67;;;15.40;;
14088;SDS011;7120;52.890;6.040;2024-01-10T05:34:59;20.30;;;15.47;;
14088;SDS011;7120;52.890;6.040;2024-01-10T05:37:25;18.57;;;13.87;;
14088;SDS011;7120;52.890;6.040;2024-01-10T05:39:50;20.50;;;14.93;;
14088;SDS011;7120;52.890;6.040;2024-01-10T05:42:15;18.23;;;13.97;;
14088;SDS011;7120;52.890;6.040;2024-01-10T05:44:41;16.73;;;13.17;;
14088;SDS011;7120;52.890;6.040;2024-01-10T05:47:07;21.90;;;15.33;;
14088;SDS011;7120;52.890;6.040;2024-01-10T05:49:32;21.20;;;15.33;;
14088;SDS011;7120;52.890;6.040;2024-01-10T05:51:57;21.00;;;15.50;;
14088;SDS011;7120;52.890;6.040;2024-01-10T05:54:23;20.87;;;13.97;;
14088;SDS011;7120;52.890;6.040;2024-01-10T05:56:48;20.43;;;14.33;;
14088;SDS011;7120;52.890;6.040;2024-01-10T05:59:14;18.77;;;13.90;;
14088;SDS011;7120;52.890;6.040;2024-01-10T06:01:41;19.97;;;13.47;;
14088;SDS011;7120;52.890;6.040;2024-01-10T06:04:07;18.27;;;14.00;;
14088;SDS011;7120;52.890;6.040;2024-01-10T06:06:32;20.13;;;14.27;;
14088;SDS011;7120;52.890;6.040;2024-01-10T06:08:58;17.33;;;13.00;;
14088;SDS011;7120;52.890;6.040;2024-01-10T06:11:23;19.77;;;14.13;;
14088;SDS011;7120;52.890;6.040;2024-01-10T06:13:49;20.27;;;13.47;;
14088;SDS011;7120;52.890;6.040;2024-01-10T06:16:14;20.30;;;13.30;;
14088;SDS011;7120;52.890;6.040;2024-01-10T06:18:39;17.37;;;13.40;;
14088;SDS011;7120;52.890;6.040;2024-01-10T06:21:05;17.07;;;13.80;;
14088;SDS011;7120;52.890;6.040;2024-01-10T06:23:30;22.57;;;14.73;;
14088;SDS011;7120;52.890;6.040;2024-01-10T06:25:56;18.97;;;13.37;;
14088;SDS011;7120;52.890;6.040;2024-01-10T06:28:21;20.83;;;14.23;;
14088;SDS011;7120;52.890;6.040;2024-01-10T06:30:48;19.43;;;13.60;;
14088;SDS011;7120;52.890;6.040;2024-01-10T06:33:13;19.20;;;11.50;;
14088;SDS011;7120;52.890;6.040;2024-01-10T06:35:39;15.90;;;12.27;;
14088;SDS011;7120;52.890;6.040;2024-01-10T06:38:04;18.43;;;13.33;;
14088;SDS011;7120;52.890;6.040;2024-01-10T06:40:29;19.70;;;14.40;;
14088;SDS011;7120;52.890;6.040;2024-01-10T06:42:55;18.57;;;12.37;;
14088;SDS011;7120;52.890;6.040;2024-01-10T06:45:20;17.10;;;11.80;;
14088;SDS011;7120;52.890;6.040;2024-01-10T06:47:46;19.53;;;13.20;;
14088;SDS011;7120;52.890;6.040;2024-01-10T06:50:12;16.77;;;12.57;;
14088;SDS011;7120;52.890;6.040;2024-01-10T06:52:38;18.97;;;12.87;;
14088;SDS011;7120;52.890;6.040;2024-01-10T06:55:03;15.97;;;11.90;;
14088;SDS011;7120;52.890;6.040;2024-01-10T06:57:29;16.70;;;12.90;;
14088;SDS011;7120;52.890;6.040;2024-01-10T07:00:01;15.10;;;11.27;;
14088;SDS011;7120;52.890;6.040;2024-01-10T07:02:28;18.17;;;13.90;;
14088;SDS011;7120;52.890;6.040;2024-01-10T07:04:54;15.40;;;11.63;;
14088;SDS011;7120;52.890;6.040;2024-01-10T07:07:19;17.23;;;12.40;;
14088;SDS011;7120;52.890;6.040;2024-01-10T07:09:44;17.30;;;12.80;;
14088;SDS011;7120;52.890;6.040;2024-01-10T07:12:10;15.50;;;12.57;;
14088;SDS011;7120;52.890;6.040;2024-01-10T07:14:35;17.17;;;12.17;;
14088;SDS011;7120;52.890;6.040;2024-01-10T07:17:00;16.60;;;12.30;;
14088;SDS011;7120;52.890;6.040;2024-01-10T07:19:26;18.10;;;13.20;;
14088;SDS011;7120;52.890;6.040;2024-01-10T07:21:51;17.90;;;13.33;;
14088;SDS011;7120;52.890;6.040;2024-01-10T07:24:19;18.77;;;12.30;;
14088;SDS011;7120;52.890;6.040;2024-01-10T07:26:44;19.43;;;13.37;;
14088;SDS011;7120;52.890;6.040;2024-01-10T07:29:09;17.27;;;13.03;;
14088;SDS011;7120;52.890;6.040;2024-01-10T07:31:35;15.67;;;11.57;;
14088;SDS011;7120;52.890;6.040;2024-01-10T07:34:00;18.17;;;13.00;;
14088;SDS011;7120;52.890;6.040;2024-01-10T07:36:26;15.97;;;11.63;;
14088;SDS011;7120;52.890;6.040;2024-01-10T07:38:52;17.03;;;12.47;;
14088;SDS011;7120;52.890;6.040;2024-01-10T07:41:17;16.23;;;12.63;;
14088;SDS011;7120;52.890;6.040;2024-01-10T07:43:43;16.23;;;11.70;;
14088;SDS011;7120;52.890;6.040;2024-01-10T07:46:08;14.30;;;11.33;;
14088;SDS011;7120;52.890;6.040;2024-01-10T07:48:34;16.17;;;12.33;;
14088;SDS011;7120;52.890;6.040;2024-01-10T07:51:01;18.10;;;12.83;;
14088;SDS011;7120;52.890;6.040;2024-01-10T07:53:26;19.57;;;14.47;;
14088;SDS011;7120;52.890;6.040;2024-01-10T07:55:52;28.13;;;19.27;;
14088;SDS011;7120;52.890;6.040;2024-01-10T07:58:17;16.37;;;13.87;;
14088;SDS011;7120;52.890;6.040;2024-01-10T08:00:43;15.17;;;11.37;;
14088;SDS011;7120;52.890;6.040;2024-01-10T08:03:11;17.47;;;12.80;;
14088;SDS011;7120;52.890;6.040;2024-01-10T08:05:37;18.30;;;13.33;;
14088;SDS011;7120;52.890;6.040;2024-01-10T08:08:02;15.17;;;11.50;;
14088;SDS011;7120;52.890;6.040;2024-01-10T08:10:28;16.00;;;12.30;;
14088;SDS011;7120;52.890;6.040;2024-01-10T08:12:54;16.93;;;12.63;;
14088;SDS011;7120;52.890;6.040;2024-01-10T08:15:19;17.77;;;12.77;;
14088;SDS011;7120;52.890;6.040;2024-01-10T08:17:45;17.27;;;11.87;;
14088;SDS011;7120;52.890;6.040;2024-01-10T08:20:11;16.97;;;13.47;;
14088;SDS011;7120;52.890;6.040;2024-01-10T08:22:39;15.63;;;12.73;;
14088;SDS011;7120;52.890;6.040;2024-01-10T08:25:05;14.40;;;11.27;;
14088;SDS011;7120;52.890;6.040;2024-01-10T08:27:31;16.10;;;11.73;;
14088;SDS011;7120;52.890;6.040;2024-01-10T08:29:58;14.77;;;11.40;;
14088;SDS011;7120;52.890;6.040;2024-01-10T08:32:24;16.80;;;12.03;;
14088;SDS011;7120;52.890;6.040;2024-01-10T08:34:49;15.40;;;12.10;;
14088;SDS011;7120;52.890;6.040;2024-01-10T08:37:14;16.70;;;12.23;;
14088;SDS011;7120;52.890;6.040;2024-01-10T08:39:42;14.00;;;11.93;;
14088;SDS011;7120;52.890;6.040;2024-01-10T08:42:08;15.13;;;12.23;;
14088;SDS011;7120;52.890;6.040;2024-01-10T08:44:34;16.70;;;12.30;;
14088;SDS011;7120;52.890;6.040;2024-01-10T08:47:00;13.77;;;11.27;;
14088;SDS011;7120;52.890;6.040;2024-01-10T08:49:26;14.20;;;11.60;;
14088;SDS011;7120;52.890;6.040;2024-01-10T08:51:51;14.30;;;11.03;;
14088;SDS011;7120;52.890;6.040;2024-01-10T08:54:18;16.60;;;12.07;;
14088;SDS011;7120;52.890;6.040;2024-01-10T08:56:45;14.00;;;11.13;;
14088;SDS011;7120;52.890;6.040;2024-01-10T08:59:11;13.37;;;11.10;;
14088;SDS011;7120;52.890;6.040;2024-01-10T09:01:37;14.10;;;12.00;;
14088;SDS011;7120;52.890;6.040;2024-01-10T09:04:07;15.30;;;12.50;;
14088;SDS011;7120;52.890;6.040;2024-01-10T09:06:32;15.60;;;11.50;;
14088;SDS011;7120;52.890;6.040;2024-01-10T09:08:58;13.60;;;11.17;;
14088;SDS011;7120;52.890;6.040;2024-01-10T09:11:24;13.70;;;12.03;;
14088;SDS011;7120;52.890;6.040;2024-01-10T09:13:49;13.63;;;11.50;;
14088;SDS011;7120;52.890;6.040;2024-01-10T09:16:16;13.53;;;11.07;;
14088;SDS011;7120;52.890;6.040;2024-01-10T09:18:43;15.83;;;11.37;;
14088;SDS011;7120;52.890;6.040;2024-01-10T09:21:09;14.97;;;11.40;;
14088;SDS011;7120;52.890;6.040;2024-01-10T09:23:34;14.53;;;10.97;;
14088;SDS011;7120;52.890;6.040;2024-01-10T09:26:02;18.13;;;13.03;;
14088;SDS011;7120;52.890;6.040;2024-01-10T09:28:32;15.20;;;11.53;;
14088;SDS011;7120;52.890;6.040;2024-01-10T09:30:57;14.97;;;11.10;;
14088;SDS011;7120;52.890;6.040;2024-01-10T09:33:22;14.30;;;11.93;;
14088;SDS011;7120;52.890;6.040;2024-01-10T09:35:48;15.60;;;12.00;;
14088;SDS011;7120;52.890;6.040;2024-01-10T09:38:13;15.87;;;11.77;;
14088;SDS011;7120;52.890;6.040;2024-01-10T09:40:39;17.77;;;11.97;;
14088;SDS011;7120;52.890;6.040;2024-01-10T09:43:05;16.80;;;11.53;;
14088;SDS011;7120;52.890;6.040;2024-01-10T09:45:34;16.00;;;11.23;;
14088;SDS011;7120;52.890;6.040;2024-01-10T09:48:00;15.43;;;11.30;;
14088;SDS011;7120;52.890;6.040;2024-01-10T09:50:26;15.00;;;11.13;;
14088;SDS011;7120;52.890;6.040;2024-01-10T09:52:52;16.77;;;11.83;;
14088;SDS011;7120;52.890;6.040;2024-01-10T09:55:21;16.70;;;12.27;;
14088;SDS011;7120;52.890;6.040;2024-01-10T09:57:48;14.97;;;12.00;;
14088;SDS011;7120;52.890;6.040;2024-01-10T10:00:14;15.30;;;11.50;;
14088;SDS011;7120;52.890;6.040;2024-01-10T10:02:43;14.80;;;11.47;;
14088;SDS011;7120;52.890;6.040;2024-01-10T10:05:14;17.57;;;12.00;;
14088;SDS011;7120;52.890;6.040;2024-01-10T10:07:47;14.10;;;11.47;;
14088;SDS011;7120;52.890;6.040;2024-01-10T10:10:14;17.10;;;11.90;;
14088;SDS011;7120;52.890;6.040;2024-01-10T10:15:18;15.07;;;10.63;;
14088;SDS011;7120;52.890;6.040;2024-01-10T10:17:48;14.33;;;10.63;;
14088;SDS011;7120;52.890;6.040;2024-01-10T10:23:04;14.10;;;10.73;;
14088;SDS011;7120;52.890;6.040;2024-01-10T10:25:32;17.87;;;11.23;;
14088;SDS011;7120;52.890;6.040;2024-01-10T10:28:10;15.00;;;10.27;;
14088;SDS011;7120;52.890;6.040;2024-01-10T10:30:36;14.50;;;11.23;;
14088;SDS011;7120;52.890;6.040;2024-01-10T10:33:02;16.40;;;11.27;;
14088;SDS011;7120;52.890;6.040;2024-01-10T10:35:28;15.77;;;11.53;;
14088;SDS011;7120;52.890;6.040;2024-01-10T10:37:53;16.17;;;10.90;;
14088;SDS011;7120;52.890;6.040;2024-01-10T10:40:22;14.83;;;10.50;;
14088;SDS011;7120;52.890;6.040;2024-01-10T10:42:48;19.07;;;12.33;;
14088;SDS011;7120;52.890;6.040;2024-01-10T10:45:19;15.03;;;11.20;;
14088;SDS011;7120;52.890;6.040;2024-01-10T10:48:00;14.57;;;10.70;;
14088;SDS011;7120;52.890;6.040;2024-01-10T10:50:32;14.80;;;11.00;;
14088;SDS011;7120;52.890;6.040;2024-01-10T10:52:59;15.87;;;10.33;;
14088;SDS011;7120;52.890;6.040;2024-01-10T10:55:27;13.47;;;9.73;;
14088;SDS011;7120;52.890;6.040;2024-01-10T10:57:53;13.77;;;10.47;;
14088;SDS011;7120;52.890;6.040;2024-01-10T11:00:21;15.27;;;10.50;;
14088;SDS011;7120;52.890;6.040;2024-01-10T11:02:52;13.90;;;9.83;;
14088;SDS011;7120;52.890;6.040;2024-01-10T11:05:18;15.50;;;10.43;;
14088;SDS011;7120;52.890;6.040;2024-01-10T11:07:45;12.50;;;9.40;;
14088;SDS011;7120;52.890;6.040;2024-01-10T11:10:16;13.93;;;9.83;;
14088;SDS011;7120;52.890;6.040;2024-01-10T11:13:28;14.30;;;9.47;;
14088;SDS011;7120;52.890;6.040;2024-01-10T11:24:47;13.20;;;9.30;;
14088;SDS011;7120;52.890;6.040;2024-01-10T11:27:13;14.10;;;9.13;;
14088;SDS011;7120;52.890;6.040;2024-01-10T11:29:40;12.93;;;8.97;;
14088;SDS011;7120;52.890;6.040;2024-01-10T11:32:13;11.73;;;8.57;;
14088;SDS011;7120;52.890;6.040;2024-01-10T11:37:28;13.63;;;8.90;;
14088;SDS011;7120;52.890;6.040;2024-01-10T11:40:07;13.93;;;9.00;;
14088;SDS011;7120;52.890;6.040;2024-01-10T11:42:40;12.57;;;8.90;;
14088;SDS011;7120;52.890;6.040;2024-01-10T11:45:07;13.60;;;8.47;;
14088;SDS011;7120;52.890;6.040;2024-01-10T11:47:33;14.10;;;9.30;;
14088;SDS011;7120;52.890;6.040;2024-01-10T11:49:59;14.67;;;8.90;;
14088;SDS011;7120;52.890;6.040;2024-01-10T11:52:32;12.70;;;8.77;;
14088;SDS011;7120;52.890;6.040;2024-01-10T11:54:59;12.03;;;8.53;;
14088;SDS011;7120;52.890;6.040;2024-01-10T11:57:28;13.90;;;8.93;;
14088;SDS011;7120;52.890;6.040;2024-01-10T11:59:57;12.73;;;8.47;;
14088;SDS011;7120;52.890;6.040;2024-01-10T12:02:25;11.97;;;8.37;;
14088;SDS011;7120;52.890;6.040;2024-01-10T12:04:51;13.47;;;8.60;;
14088;SDS011;7120;52.890;6.040;2024-01-10T12:07:17;13.10;;;9.37;;
14088;SDS011;7120;52.890;6.040;2024-01-10T12:09:44;14.10;;;9.20;;
14088;SDS011;7120;52.890;6.040;2024-01-10T12:12:10;12.27;;;8.67;;
14088;SDS011;7120;52.890;6.040;2024-01-10T12:14:36;12.80;;;8.27;;
14088;SDS011;7120;52.890;6.040;2024-01-10T12:17:02;11.27;;;8.23;;
14088;SDS011;7120;52.890;6.040;2024-01-10T12:19:29;12.57;;;8.77;;
14088;SDS011;7120;52.890;6.040;2024-01-10T12:21:54;14.37;;;9.10;;
14088;SDS011;7120;52.890;6.040;2024-01-10T12:24:20;12.23;;;9.23;;
14088;SDS011;7120;52.890;6.040;2024-01-10T12:26:46;11.73;;;8.50;;
14088;SDS011;7120;52.890;6.040;2024-01-10T12:29:13;14.30;;;8.63;;
14088;SDS011;7120;52.890;6.040;2024-01-10T12:31:42;12.90;;;8.37;;
14088;SDS011;7120;52.890;6.040;2024-01-10T12:34:10;12.77;;;8.07;;
14088;SDS011;7120;52.890;6.040;2024-01-10T12:36:36;12.37;;;8.40;;
14088;SDS011;7120;52.890;6.040;2024-01-10T12:39:01;12.10;;;7.50;;
14088;SDS011;7120;52.890;6.040;2024-01-10T12:41:27;12.73;;;8.10;;
14088;SDS011;7120;52.890;6.040;2024-01-10T12:43:53;10.57;;;7.70;;
14088;SDS011;7120;52.890;6.040;2024-01-10T12:46:22;13.27;;;8.70;;
14088;SDS011;7120;52.890;6.040;2024-01-10T12:49:00;12.20;;;8.03;;
14088;SDS011;7120;52.890;6.040;2024-01-10T12:51:30;13.07;;;8.77;;
14088;SDS011;7120;52.890;6.040;2024-01-10T12:53:57;13.43;;;8.30;;
14088;SDS011;7120;52.890;6.040;2024-01-10T12:56:28;11.27;;;7.80;;
14088;SDS011;7120;52.890;6.040;2024-01-10T12:58:54;13.43;;;8.33;;
14088;SDS011;7120;52.890;6.040;2024-01-10T13:01:20;13.23;;;8.63;;
14088;SDS011;7120;52.890;6.040;2024-01-10T13:03:46;13.93;;;8.27;;
14088;SDS011;7120;52.890;6.040;2024-01-10T13:06:13;12.17;;;7.60;;
14088;SDS011;7120;52.890;6.040;2024-01-10T13:08:42;11.37;;;7.33;;
14088;SDS011;7120;52.890;6.040;2024-01-10T13:11:08;11.23;;;8.30;;
14088;SDS011;7120;52.890;6.040;2024-01-10T13:13:37;9.80;;;7.47;;
14088;SDS011;7120;52.890;6.040;2024-01-10T13:16:03;11.77;;;7.70;;
14088;SDS011;7120;52.890;6.040;2024-01-10T13:18:29;10.97;;;8.13;;
14088;SDS011;7120;52.890;6.040;2024-01-10T13:20:54;12.30;;;8.17;;
14088;SDS011;7120;52.890;6.040;2024-01-10T13:23:20;10.37;;;7.53;;
14088;SDS011;7120;52.890;6.040;2024-01-10T13:25:48;11.47;;;7.73;;
14088;SDS011;7120;52.890;6.040;2024-01-10T13:28:13;13.27;;;8.27;;
14088;SDS011;7120;52.890;6.040;2024-01-10T13:30:40;12.73;;;7.57;;
14088;SDS011;7120;52.890;6.040;2024-01-10T13:33:06;11.60;;;7.93;;
14088;SDS011;7120;52.890;6.040;2024-01-10T13:35:32;11.17;;;8.27;;
14088;SDS011;7120;52.890;6.040;2024-01-10T13:37:58;10.83;;;7.50;;
14088;SDS011;7120;52.890;6.040;2024-01-10T13:40:23;13.47;;;7.97;;
14088;SDS011;7120;52.890;6.040;2024-01-10T13:42:51;12.07;;;7.73;;
14088;SDS011;7120;52.890;6.040;2024-01-10T13:45:18;12.03;;;7.67;;
14088;SDS011;7120;52.890;6.040;2024-01-10T13:47:44;12.17;;;8.20;;
14088;SDS011;7120;52.890;6.040;2024-01-10T13:50:09;11.73;;;8.37;;
14088;SDS011;7120;52.890;6.040;2024-01-10T13:52:35;10.83;;;7.37;;
14088;SDS011;7120;52.890;6.040;2024-01-10T13:55:01;11.20;;;7.37;;
14088;SDS011;7120;52.890;6.040;2024-01-10T13:57:27;9.80;;;7.67;;
14088;SDS011;7120;52.890;6.040;2024-01-10T13:59:53;11.13;;;7.37;;
14088;SDS011;7120;52.890;6.040;2024-01-10T14:02:23;12.20;;;7.67;;
14088;SDS011;7120;52.890;6.040;2024-01-10T14:04:49;11.30;;;7.70;;
14088;SDS011;7120;52.890;6.040;2024-01-10T14:07:16;11.33;;;7.93;;
14088;SDS011;7120;52.890;6.040;2024-01-10T14:09:41;13.77;;;7.80;;
14088;SDS011;7120;52.890;6.040;2024-01-10T14:12:06;14.93;;;8.60;;
14088;SDS011;7120;52.890;6.040;2024-01-10T14:14:32;10.97;;;7.63;;
14088;SDS011;7120;52.890;6.040;2024-01-10T14:16:57;13.17;;;7.90;;
14088;SDS011;7120;52.890;6.040;2024-01-10T14:19:23;11.60;;;7.87;;
14088;SDS011;7120;52.890;6.040;2024-01-10T14:21:48;11.20;;;7.47;;
14088;SDS011;7120;52.890;6.040;2024-01-10T14:24:13;10.77;;;7.83;;
14088;SDS011;7120;52.890;6.040;2024-01-10T14:26:48;10.17;;;7.13;;
14088;SDS011;7120;52.890;6.040;2024-01-10T14:29:13;10.03;;;7.10;;
14088;SDS011;7120;52.890;6.040;2024-01-10T14:31:39;11.73;;;7.97;;
14088;SDS011;7120;52.890;6.040;2024-01-10T14:34:04;12.10;;;8.47;;
14088;SDS011;7120;52.890;6.040;2024-01-10T14:36:30;11.83;;;8.13;;
14088;SDS011;7120;52.890;6.040;2024-01-10T14:38:55;11.53;;;7.50;;
14088;SDS011;7120;52.890;6.040;2024-01-10T14:41:21;8.40;;;6.60;;
14088;SDS011;7120;52.890;6.040;2024-01-10T14:43:46;11.40;;;7.60;;
14088;SDS011;7120;52.890;6.040;2024-01-10T14:46:12;9.67;;;6.60;;
14088;SDS011;7120;52.890;6.040;2024-01-10T14:48:37;10.20;;;7.60;;
14088;SDS011;7120;52.890;6.040;2024-01-10T14:51:02;10.23;;;8.07;;